Time;durP1;ratioP1;P1;durP2;ratioP2;P2;SDS_P1;SDS_P2;PMS_P1;PMS_P2;Temp;Humidity;BMP_temperature;BMP_pressure;BME280_temperature;BME280_humidity;BME280_pressure;Samples;Min_cycle;Max_cycle;Signal;HPM_P1;HPM_P2
2022/03/11 00:02:05;;;;;;;2.22;1.40;;;;;;;;;;5077566;28;20036;-51
2022/03/11 00:04:31;;;;;;;2.35;1.27;;;;;;;;;;5073329;28;20111;-53
2022/03/11 00:06:57;;;;;;;2.65;1.60;;;;;;;;;;5073811;28;20460;-52
2022/03/11 00:09:23;;;;;;;1.80;1.45;;;;;;;;;;5073017;28;20021;-52
2022/03/11 00:11:49;;;;;;;1.17;1.00;;;;;;;;;;5084385;28;20039;-54
2022/03/11 00:14:15;;;;;;;3.47;1.20;;;;;;;;;;5083649;28;20032;-50
2022/03/11 00:16:41;;;;;;;2.28;1.00;;;;;;;;;;5072972;28;20417;-54
2022/03/11 00:19:07;;;;;;;1.25;1.13;;;;;;;;;;5073653;28;20466;-52
2022/03/11 00:21:34;;;;;;;1.50;1.17;;;;;;;;;;5079242;28;20032;-50
2022/03/11 00:24:00;;;;;;;2.50;1.48;;;;;;;;;;5093757;28;20024;-51
2022/03/11 00:26:26;;;;;;;2.28;1.17;;;;;;;;;;5086785;28;20074;-49
2022/03/11 00:28:52;;;;;;;2.63;1.33;;;;;;;;;;5080197;28;20028;-51
2022/03/11 00:31:18;;;;;;;1.98;1.25;;;;;;;;;;5091661;28;20036;-52
2022/03/11 00:33:44;;;;;;;1.35;0.90;;;;;;;;;;5073139;28;20043;-50
2022/03/11 00:36:10;;;;;;;1.90;1.27;;;;;;;;;;5073477;28;20033;-52
2022/03/11 00:38:36;;;;;;;2.78;1.48;;;;;;;;;;5072447;28;20355;-50
2022/03/11 00:41:02;;;;;;;2.00;1.50;;;;;;;;;;5084412;28;20036;-50
2022/03/11 00:43:29;;;;;;;2.78;1.52;;;;;;;;;;5076920;28;20078;-54
2022/03/11 00:45:55;;;;;;;2.55;1.63;;;;;;;;;;5093245;28;20039;-49
2022/03/11 00:48:21;;;;;;;2.83;1.42;;;;;;;;;;5092856;28;20020;-53
2022/03/11 00:50:48;;;;;;;1.83;1.38;;;;;;;;;;5075217;28;20441;-54
2022/03/11 00:53:14;;;;;;;3.13;1.40;;;;;;;;;;5080907;28;20028;-50
2022/03/11 00:55:40;;;;;;;3.08;1.15;;;;;;;;;;5090726;28;20024;-53
2022/03/11 00:58:06;;;;;;;2.75;1.55;;;;;;;;;;5093028;28;20030;-53
2022/03/11 01:00:32;;;;;;;1.85;1.27;;;;;;;;;;5092632;28;20032;-54
2022/03/11 01:02:59;;;;;;;1.92;1.40;;;;;;;;;;5085909;28;20042;-54
2022/03/11 01:05:25;;;;;;;1.70;1.17;;;;;;;;;;5071703;28;20100;-52
2022/03/11 01:07:52;;;;;;;2.90;1.38;;;;;;;;;;5072796;28;20032;-52
2022/03/11 01:10:19;;;;;;;2.03;1.55;;;;;;;;;;5072714;28;20051;-51
2022/03/11 01:12:45;;;;;;;2.08;1.10;;;;;;;;;;5073063;28;20032;-51
2022/03/11 01:15:11;;;;;;;2.45;1.38;;;;;;;;;;5072281;28;20098;-54
2022/03/11 01:17:38;;;;;;;1.50;1.27;;;;;;;;;;5071853;28;20469;-52
2022/03/11 01:20:05;;;;;;;1.73;1.15;;;;;;;;;;5072988;28;20488;-54
2022/03/11 01:22:31;;;;;;;1.80;1.42;;;;;;;;;;5071755;28;20063;-54
2022/03/11 01:24:57;;;;;;;1.80;1.50;;;;;;;;;;5092061;28;20027;-51
2022/03/11 01:27:23;;;;;;;2.25;1.38;;;;;;;;;;5092145;28;20028;-53
2022/03/11 01:29:49;;;;;;;1.83;1.10;;;;;;;;;;5090756;28;20052;-51
2022/03/11 01:32:15;;;;;;;2.35;1.27;;;;;;;;;;5074366;28;20028;-53
2022/03/11 01:34:41;;;;;;;1.98;1.50;;;;;;;;;;5091867;28;20623;-51
2022/03/11 01:37:07;;;;;;;2.22;1.30;;;;;;;;;;5092594;28;20182;-51
2022/03/11 01:39:33;;;;;;;2.22;1.38;;;;;;;;;;5091603;28;20380;-54
2022/03/11 01:41:59;;;;;;;2.58;1.65;;;;;;;;;;5092828;28;20069;-53
2022/03/11 01:44:25;;;;;;;2.10;1.38;;;;;;;;;;5063779;28;20366;-50
2022/03/11 01:46:52;;;;;;;2.20;1.55;;;;;;;;;;5074256;28;20059;-50
2022/03/11 01:49:18;;;;;;;2.50;1.55;;;;;;;;;;5091929;28;20103;-52
2022/03/11 01:51:44;;;;;;;2.72;1.48;;;;;;;;;;5091356;28;20036;-52
2022/03/11 01:54:11;;;;;;;2.30;1.45;;;;;;;;;;5075097;28;20546;-55
2022/03/11 01:56:37;;;;;;;1.95;1.23;;;;;;;;;;5070418;28;20028;-51
2022/03/11 01:59:04;;;;;;;1.83;1.55;;;;;;;;;;5071953;28;20021;-54
2022/03/11 02:01:30;;;;;;;2.78;1.70;;;;;;;;;;5071223;28;20028;-54
2022/03/11 02:03:59;;;;;;;4.10;1.48;;;;;;;;;;5083638;28;20521;-54
2022/03/11 02:06:26;;;;;;;4.43;1.73;;;;;;;;;;5091244;28;20097;-50
2022/03/11 02:08:52;;;;;;;2.38;1.77;;;;;;;;;;5092062;28;20024;-51
2022/03/11 02:11:19;;;;;;;2.25;1.40;;;;;;;;;;5091961;28;20032;-54
2022/03/11 02:13:46;;;;;;;2.35;1.67;;;;;;;;;;5082711;28;20508;-52
2022/03/11 02:16:13;;;;;;;2.47;1.50;;;;;;;;;;5071409;28;20044;-53
2022/03/11 02:18:40;;;;;;;3.40;1.30;;;;;;;;;;5070259;28;20055;-51
2022/03/11 02:21:07;;;;;;;2.70;1.73;;;;;;;;;;5073678;28;20530;-53
2022/03/11 02:23:52;;;;;;;2.47;1.85;;;;;;;;;;5071087;28;20032;-54
2022/03/11 02:26:19;;;;;;;3.88;1.73;;;;;;;;;;5076874;28;20021;-53
2022/03/11 02:28:46;;;;;;;2.78;1.55;;;;;;;;;;5070905;28;20024;-50
2022/03/11 02:31:12;;;;;;;2.17;1.30;;;;;;;;;;5073644;28;20044;-54
2022/03/11 02:33:38;;;;;;;2.60;1.38;;;;;;;;;;5089312;28;20035;-54
2022/03/11 02:36:05;;;;;;;2.67;1.65;;;;;;;;;;5071717;28;20424;-55
2022/03/11 02:38:31;;;;;;;2.47;1.75;;;;;;;;;;5071044;28;20025;-54
2022/03/11 02:40:57;;;;;;;2.63;1.73;;;;;;;;;;5074289;28;20032;-51
2022/03/11 02:43:23;;;;;;;3.08;1.90;;;;;;;;;;5089853;28;20095;-52
2022/03/11 02:45:50;;;;;;;4.55;1.90;;;;;;;;;;5087689;28;20051;-50
2022/03/11 02:48:16;;;;;;;2.28;1.75;;;;;;;;;;5091622;28;20433;-52
2022/03/11 02:50:42;;;;;;;1.80;1.60;;;;;;;;;;5090329;28;20039;-54
2022/03/11 02:53:08;;;;;;;2.83;1.60;;;;;;;;;;5091794;28;20099;-53
2022/03/11 02:55:34;;;;;;;3.70;1.80;;;;;;;;;;5090871;28;20020;-53
2022/03/11 02:58:00;;;;;;;1.88;1.60;;;;;;;;;;5091603;28;20397;-53
2022/03/11 03:00:26;;;;;;;2.42;1.40;;;;;;;;;;5091055;28;20115;-53
2022/03/11 03:02:52;;;;;;;2.13;1.83;;;;;;;;;;5073055;28;20100;-53
2022/03/11 03:05:18;;;;;;;5.00;2.00;;;;;;;;;;5071370;28;20034;-53
2022/03/11 03:07:44;;;;;;;2.80;1.60;;;;;;;;;;5070501;28;20029;-53
2022/03/11 03:10:13;;;;;;;2.47;1.77;;;;;;;;;;5086666;28;20388;-50
2022/03/11 03:12:40;;;;;;;2.00;1.63;;;;;;;;;;5073936;28;20029;-52
2022/03/11 03:15:07;;;;;;;2.60;1.95;;;;;;;;;;5070816;28;20037;-53
2022/03/11 03:17:33;;;;;;;3.63;2.05;;;;;;;;;;5052651;28;20028;-53
2022/03/11 03:19:59;;;;;;;3.03;2.22;;;;;;;;;;5071524;28;20032;-52
2022/03/11 03:22:25;;;;;;;5.47;2.03;;;;;;;;;;5084864;28;20040;-52
2022/03/11 03:24:51;;;;;;;2.38;1.77;;;;;;;;;;5090947;28;20035;-53
2022/03/11 03:27:17;;;;;;;2.55;1.60;;;;;;;;;;5091052;28;20026;-52
2022/03/11 03:29:44;;;;;;;3.05;1.60;;;;;;;;;;5092233;28;20520;-54
2022/03/11 03:32:10;;;;;;;2.35;1.73;;;;;;;;;;5083980;28;20098;-53
2022/03/11 03:34:37;;;;;;;2.72;1.90;;;;;;;;;;5094026;28;20116;-53
2022/03/11 03:37:07;;;;;;;2.85;1.90;;;;;;;;;;5076474;28;20389;-53
2022/03/11 03:39:34;;;;;;;3.42;2.25;;;;;;;;;;5093943;28;20016;-50
2022/03/11 03:42:00;;;;;;;3.05;2.22;;;;;;;;;;5086668;28;20393;-50
2022/03/11 03:44:26;;;;;;;3.80;2.13;;;;;;;;;;5083634;28;20085;-53
2022/03/11 03:46:52;;;;;;;5.32;2.40;;;;;;;;;;5076269;28;20028;-54
2022/03/11 03:49:18;;;;;;;2.90;2.10;;;;;;;;;;5094617;28;20081;-51
2022/03/11 03:51:44;;;;;;;2.92;1.75;;;;;;;;;;5065339;28;20045;-53
2022/03/11 03:54:11;;;;;;;2.33;1.98;;;;;;;;;;5074311;28;20025;-53
2022/03/11 03:56:37;;;;;;;5.00;2.65;;;;;;;;;;5073475;28;20032;-53
2022/03/11 03:59:04;;;;;;;2.88;2.00;;;;;;;;;;5080402;28;20032;-50
2022/03/11 04:01:40;;;;;;;2.42;1.85;;;;;;;;;;5088560;28;20108;-53
2022/03/11 04:04:07;;;;;;;2.53;2.00;;;;;;;;;;5081197;28;20081;-54
2022/03/11 04:06:33;;;;;;;4.25;2.10;;;;;;;;;;5093256;28;20024;-53
2022/03/11 04:09:00;;;;;;;3.15;2.20;;;;;;;;;;5094276;28;20028;-53
2022/03/11 04:11:27;;;;;;;3.58;2.10;;;;;;;;;;5089968;28;20362;-51
2022/03/11 04:13:54;;;;;;;3.13;2.05;;;;;;;;;;5073161;28;20496;-54
2022/03/11 04:16:20;;;;;;;3.50;1.90;;;;;;;;;;5073598;28;20064;-50
2022/03/11 04:18:46;;;;;;;3.10;2.30;;;;;;;;;;5073184;28;20543;-51
2022/03/11 04:21:13;;;;;;;3.35;2.17;;;;;;;;;;5075260;28;20113;-54
2022/03/11 04:23:39;;;;;;;2.75;1.95;;;;;;;;;;5093249;28;20020;-54
2022/03/11 04:26:06;;;;;;;4.05;2.38;;;;;;;;;;5093569;28;20518;-53
2022/03/11 04:28:32;;;;;;;2.65;2.10;;;;;;;;;;5093027;28;20070;-51
2022/03/11 04:30:59;;;;;;;2.88;2.22;;;;;;;;;;5093572;28;20477;-52
2022/03/11 04:33:25;;;;;;;3.72;2.33;;;;;;;;;;5073867;28;20115;-53
2022/03/11 04:35:51;;;;;;;3.08;1.90;;;;;;;;;;5072828;28;20032;-54
2022/03/11 04:38:17;;;;;;;3.13;2.28;;;;;;;;;;5073468;28;20033;-53
2022/03/11 04:40:43;;;;;;;2.97;1.98;;;;;;;;;;5088525;28;20415;-54
2022/03/11 04:43:09;;;;;;;2.70;2.17;;;;;;;;;;5076165;28;20025;-53
2022/03/11 04:45:35;;;;;;;3.63;2.10;;;;;;;;;;5091516;28;20023;-55
2022/03/11 04:48:01;;;;;;;4.43;1.90;;;;;;;;;;5093439;28;20051;-53
2022/03/11 04:50:27;;;;;;;3.55;2.17;;;;;;;;;;5092733;28;20419;-50
2022/03/11 04:52:54;;;;;;;3.08;2.35;;;;;;;;;;5091992;28;20032;-55
2022/03/11 04:55:20;;;;;;;5.35;2.60;;;;;;;;;;5075137;28;20086;-53
2022/03/11 04:57:46;;;;;;;3.63;2.25;;;;;;;;;;5072167;28;20029;-53
2022/03/11 05:00:13;;;;;;;3.15;2.53;;;;;;;;;;5073058;28;20032;-52
2022/03/11 05:02:44;;;;;;;3.25;2.40;;;;;;;;;;5072294;28;20075;-52
2022/03/11 05:05:11;;;;;;;2.67;1.83;;;;;;;;;;5072999;28;20024;-53
2022/03/11 05:07:37;;;;;;;3.28;2.65;;;;;;;;;;5071731;28;20044;-51
2022/03/11 05:10:04;;;;;;;4.20;2.10;;;;;;;;;;5073885;28;20028;-54
2022/03/11 05:12:31;;;;;;;3.88;2.40;;;;;;;;;;5077984;28;20028;-53
2022/03/11 05:14:57;;;;;;;3.60;2.45;;;;;;;;;;5074579;28;20032;-54
2022/03/11 05:17:23;;;;;;;4.63;2.50;;;;;;;;;;5072661;28;20051;-53
2022/03/11 05:19:49;;;;;;;3.92;2.40;;;;;;;;;;5071759;28;20129;-56
2022/03/11 05:22:15;;;;;;;2.80;1.83;;;;;;;;;;5086493;28;20020;-54
2022/03/11 05:24:41;;;;;;;2.47;1.77;;;;;;;;;;5072068;28;20029;-55
2022/03/11 05:27:07;;;;;;;2.42;2.17;;;;;;;;;;5072462;28;20458;-55
2022/03/11 05:29:34;;;;;;;7.70;2.75;;;;;;;;;;5071582;28;20032;-54
2022/03/11 05:32:00;;;;;;;2.60;1.80;;;;;;;;;;5072356;28;20036;-54
2022/03/11 05:34:26;;;;;;;3.47;2.53;;;;;;;;;;5072696;28;20029;-55
2022/03/11 05:36:52;;;;;;;3.47;2.58;;;;;;;;;;5079051;28;20782;-53
2022/03/11 05:39:19;;;;;;;3.35;1.98;;;;;;;;;;5092619;28;20020;-54
2022/03/11 05:41:46;;;;;;;2.75;2.05;;;;;;;;;;5091728;28;20024;-54
2022/03/11 05:44:12;;;;;;;3.55;2.55;;;;;;;;;;5080672;28;20031;-54
2022/03/11 05:46:38;;;;;;;3.90;2.30;;;;;;;;;;5091348;28;20432;-54
2022/03/11 05:49:05;;;;;;;3.38;2.20;;;;;;;;;;5092252;28;20074;-52
2022/03/11 05:51:31;;;;;;;2.78;2.00;;;;;;;;;;5091202;28;20028;-54
2022/03/11 05:53:57;;;;;;;3.22;2.28;;;;;;;;;;5091904;28;20012;-53
2022/03/11 05:56:23;;;;;;;2.67;2.35;;;;;;;;;;5088685;28;20032;-53
2022/03/11 05:58:50;;;;;;;2.30;2.10;;;;;;;;;;5091352;28;20035;-52
2022/03/11 06:01:16;;;;;;;4.13;2.42;;;;;;;;;;5091270;28;20030;-55
2022/03/11 06:03:43;;;;;;;3.78;2.63;;;;;;;;;;5084576;28;20074;-55
2022/03/11 06:06:09;;;;;;;3.88;1.98;;;;;;;;;;5090499;28;20103;-55
2022/03/11 06:08:35;;;;;;;2.95;2.03;;;;;;;;;;5084485;28;20054;-56
2022/03/11 06:11:01;;;;;;;3.95;2.20;;;;;;;;;;5083384;28;20032;-55
2022/03/11 06:13:27;;;;;;;3.72;2.22;;;;;;;;;;5082420;28;20035;-56
2022/03/11 06:15:53;;;;;;;3.97;2.40;;;;;;;;;;5078918;28;20050;-56
2022/03/11 06:18:19;;;;;;;3.58;2.17;;;;;;;;;;5084659;28;20024;-54
2022/03/11 06:20:45;;;;;;;3.42;2.35;;;;;;;;;;5090965;28;20020;-55
2022/03/11 06:23:11;;;;;;;3.15;2.10;;;;;;;;;;5085601;28;20024;-55
2022/03/11 06:25:37;;;;;;;3.85;2.38;;;;;;;;;;5080716;28;20031;-52
2022/03/11 06:28:03;;;;;;;5.53;2.47;;;;;;;;;;5082217;28;20070;-65
2022/03/11 06:30:29;;;;;;;3.20;2.47;;;;;;;;;;5082242;28;20120;-53
2022/03/11 06:32:55;;;;;;;3.75;1.98;;;;;;;;;;5079494;28;20031;-56
2022/03/11 06:35:21;;;;;;;2.33;1.70;;;;;;;;;;5080896;28;20024;-54
2022/03/11 06:37:50;;;;;;;2.47;2.03;;;;;;;;;;5085166;28;20025;-56
2022/03/11 06:40:16;;;;;;;2.35;1.80;;;;;;;;;;5091619;28;20357;-57
2022/03/11 06:42:44;;;;;;;2.42;1.77;;;;;;;;;;5090604;28;20027;-55
2022/03/11 06:45:10;;;;;;;2.75;2.00;;;;;;;;;;5087770;28;20396;-56
2022/03/11 06:47:37;;;;;;;1.98;1.73;;;;;;;;;;5090767;28;20414;-56
2022/03/11 06:50:04;;;;;;;3.55;1.88;;;;;;;;;;5091231;28;20032;-57
2022/03/11 06:52:30;;;;;;;3.08;2.10;;;;;;;;;;5087160;28;20370;-54
2022/03/11 06:54:56;;;;;;;4.07;2.40;;;;;;;;;;5077587;28;20118;-58
2022/03/11 06:57:22;;;;;;;3.42;1.92;;;;;;;;;;5091452;28;20103;-56
2022/03/11 06:59:48;;;;;;;3.38;2.15;;;;;;;;;;5090685;28;20028;-57
2022/03/11 07:02:16;;;;;;;3.45;1.70;;;;;;;;;;5090018;28;20028;-56
2022/03/11 07:04:42;;;;;;;2.85;1.90;;;;;;;;;;5081473;28;20027;-55
2022/03/11 07:07:08;;;;;;;3.95;2.30;;;;;;;;;;5078900;28;20465;-57
2022/03/11 07:09:34;;;;;;;3.53;1.75;;;;;;;;;;5080004;28;20441;-54
2022/03/11 07:12:03;;;;;;;2.80;2.13;;;;;;;;;;5094902;28;20564;-56
2022/03/11 07:14:35;;;;;;;5.18;2.63;;;;;;;;;;5079455;28;20092;-60
2022/03/11 07:17:01;;;;;;;4.72;2.00;;;;;;;;;;5090732;28;20113;-58
2022/03/11 07:19:27;;;;;;;6.45;1.88;;;;;;;;;;5087480;28;20053;-58
2022/03/11 07:21:54;;;;;;;2.88;2.00;;;;;;;;;;5086402;28;20032;-58
2022/03/11 07:24:20;;;;;;;4.70;1.73;;;;;;;;;;5083705;28;20029;-58
2022/03/11 07:26:46;;;;;;;3.95;2.05;;;;;;;;;;5086865;28;20100;-58
2022/03/11 07:29:12;;;;;;;6.45;2.22;;;;;;;;;;5081607;28;20054;-57
2022/03/11 07:31:38;;;;;;;7.18;2.40;;;;;;;;;;5093539;28;20028;-58
2022/03/11 07:34:04;;;;;;;4.53;2.10;;;;;;;;;;5082816;28;20021;-60
2022/03/11 07:36:34;;;;;;;3.72;1.98;;;;;;;;;;5083061;28;20488;-49
2022/03/11 07:39:01;;;;;;;2.75;1.92;;;;;;;;;;5081990;28;20052;-58
2022/03/11 07:41:28;;;;;;;6.68;1.88;;;;;;;;;;5082798;28;20032;-58
2022/03/11 07:43:54;;;;;;;5.75;2.17;;;;;;;;;;5084098;28;20053;-59
2022/03/11 07:46:23;;;;;;;3.10;1.90;;;;;;;;;;5080549;28;20040;-57
2022/03/11 07:48:49;;;;;;;3.83;2.05;;;;;;;;;;5085010;28;20017;-57
2022/03/11 07:51:15;;;;;;;4.32;2.20;;;;;;;;;;5094324;28;20032;-51
2022/03/11 07:53:41;;;;;;;3.40;1.75;;;;;;;;;;5091118;28;20456;-52
2022/03/11 07:56:07;;;;;;;5.18;1.75;;;;;;;;;;5094198;28;20059;-48
2022/03/11 07:58:33;;;;;;;2.53;1.98;;;;;;;;;;5078445;28;20024;-47
2022/03/11 08:00:59;;;;;;;3.65;1.95;;;;;;;;;;5073431;28;20029;-52
2022/03/11 08:03:26;;;;;;;3.88;2.05;;;;;;;;;;5083699;28;20346;-53
2022/03/11 08:05:52;;;;;;;4.30;1.75;;;;;;;;;;5073221;28;20021;-56
2022/03/11 08:08:18;;;;;;;8.65;2.53;;;;;;;;;;5073942;28;20035;-50
2022/03/11 08:10:44;;;;;;;5.70;2.13;;;;;;;;;;5055569;28;20044;-48
2022/03/11 08:13:10;;;;;;;8.35;2.65;;;;;;;;;;5073803;28;20032;-54
2022/03/11 08:15:36;;;;;;;6.75;1.80;;;;;;;;;;5083448;28;20047;-57
2022/03/11 08:18:03;;;;;;;3.35;2.05;;;;;;;;;;5078778;28;20111;-57
2022/03/11 08:20:29;;;;;;;5.60;1.90;;;;;;;;;;5081443;28;20469;-57
2022/03/11 08:22:55;;;;;;;3.10;2.58;;;;;;;;;;5084350;28;20107;-57
2022/03/11 08:25:26;;;;;;;2.80;1.90;;;;;;;;;;5073708;28;20447;-57
2022/03/11 08:27:52;;;;;;;5.20;2.40;;;;;;;;;;5069716;28;20028;-57
2022/03/11 08:30:19;;;;;;;6.05;2.05;;;;;;;;;;5074209;28;20043;-57
2022/03/11 08:32:45;;;;;;;2.53;1.75;;;;;;;;;;5081549;28;20427;-57
2022/03/11 08:35:11;;;;;;;2.63;1.85;;;;;;;;;;5079008;28;20039;-57
2022/03/11 08:37:37;;;;;;;3.08;1.60;;;;;;;;;;5073076;28;20374;-57
2022/03/11 08:40:05;;;;;;;5.25;2.25;;;;;;;;;;5072841;28;20103;-57
2022/03/11 08:42:32;;;;;;;4.13;1.90;;;;;;;;;;5080183;28;20024;-57
2022/03/11 08:45:00;;;;;;;5.40;1.83;;;;;;;;;;5090000;28;20031;-57
2022/03/11 08:47:26;;;;;;;4.05;1.55;;;;;;;;;;5093049;28;20035;-57
2022/03/11 08:49:52;;;;;;;3.33;2.00;;;;;;;;;;5080804;28;20073;-57
2022/03/11 08:52:19;;;;;;;4.93;2.28;;;;;;;;;;5071974;28;20040;-58
2022/03/11 08:54:45;;;;;;;5.35;2.38;;;;;;;;;;5085120;28;20595;-60
2022/03/11 08:57:11;;;;;;;2.83;1.83;;;;;;;;;;5093065;28;20074;-60
2022/03/11 08:59:37;;;;;;;3.13;1.83;;;;;;;;;;5088234;28;20032;-58
2022/03/11 09:02:06;;;;;;;2.53;2.03;;;;;;;;;;5072555;28;20028;-60
2022/03/11 09:04:32;;;;;;;3.47;1.77;;;;;;;;;;5072579;28;20078;-61
2022/03/11 09:06:58;;;;;;;3.80;1.52;;;;;;;;;;5071966;28;20012;-55
2022/03/11 09:09:24;;;;;;;3.47;1.83;;;;;;;;;;5074224;28;20385;-60
2022/03/11 09:11:50;;;;;;;4.50;2.10;;;;;;;;;;5090136;28;20105;-61
2022/03/11 09:14:18;;;;;;;4.75;1.88;;;;;;;;;;5088663;28;20420;-58
2022/03/11 09:16:44;;;;;;;2.63;1.58;;;;;;;;;;5071311;28;20045;-59
2022/03/11 09:19:10;;;;;;;4.13;2.10;;;;;;;;;;5086961;28;20461;-59
2022/03/11 09:21:36;;;;;;;3.85;1.75;;;;;;;;;;5055883;28;20123;-58
2022/03/11 09:24:02;;;;;;;3.97;2.53;;;;;;;;;;5071724;28;20029;-60
2022/03/11 09:26:28;;;;;;;4.55;2.33;;;;;;;;;;5071868;28;20465;-60
2022/03/11 09:28:54;;;;;;;5.82;3.03;;;;;;;;;;5071405;28;20036;-60
2022/03/11 09:31:20;;;;;;;7.38;3.20;;;;;;;;;;5080738;28;20157;-61
2022/03/11 09:33:46;;;;;;;11.15;3.75;;;;;;;;;;5071151;28;20103;-56
2022/03/11 09:36:13;;;;;;;6.35;3.22;;;;;;;;;;5077304;28;20024;-56
2022/03/11 09:38:39;;;;;;;8.93;3.58;;;;;;;;;;5077742;28;20047;-55
2022/03/11 09:41:05;;;;;;;6.50;3.50;;;;;;;;;;5085676;28;20062;-55
2022/03/11 09:43:32;;;;;;;6.90;3.90;;;;;;;;;;5089866;28;20418;-51
2022/03/11 09:45:58;;;;;;;7.95;3.88;;;;;;;;;;5072973;28;20166;-51
2022/03/11 09:48:25;;;;;;;4.25;3.00;;;;;;;;;;5091784;28;20054;-55
2022/03/11 09:50:51;;;;;;;6.07;3.40;;;;;;;;;;5092636;28;20028;-52
2022/03/11 09:53:18;;;;;;;5.57;3.78;;;;;;;;;;5083598;28;20062;-53
2022/03/11 09:55:45;;;;;;;6.72;3.50;;;;;;;;;;5071094;28;20380;-55
2022/03/11 09:58:11;;;;;;;10.90;4.38;;;;;;;;;;5088677;28;20103;-58
2022/03/11 10:00:38;;;;;;;7.82;3.22;;;;;;;;;;5090927;28;20055;-54
2022/03/11 10:03:04;;;;;;;7.47;4.22;;;;;;;;;;5071471;28;20481;-56
2022/03/11 10:05:48;;;;;;;8.45;4.20;;;;;;;;;;5071717;28;20381;-53
2022/03/11 10:08:14;;;;;;;7.35;3.63;;;;;;;;;;5089684;28;20031;-56
2022/03/11 10:10:41;;;;;;;6.15;3.85;;;;;;;;;;5091132;28;20028;-54
2022/03/11 10:13:08;;;;;;;6.22;3.45;;;;;;;;;;5091276;28;20024;-57
2022/03/11 10:15:34;;;;;;;5.60;3.03;;;;;;;;;;5088861;28;20048;-57
2022/03/11 10:18:02;;;;;;;9.80;4.85;;;;;;;;;;5091500;28;20480;-57
2022/03/11 10:20:29;;;;;;;9.82;4.25;;;;;;;;;;5083324;28;20035;-57
2022/03/11 10:22:57;;;;;;;7.10;3.70;;;;;;;;;;5087448;28;20085;-57
2022/03/11 10:25:25;;;;;;;6.63;3.45;;;;;;;;;;5090161;28;20016;-57
2022/03/11 10:28:03;;;;;;;5.45;2.97;;;;;;;;;;5090991;28;20042;-57
2022/03/11 10:30:32;;;;;;;7.72;3.50;;;;;;;;;;5087284;28;20074;-57
2022/03/11 10:33:00;;;;;;;11.45;4.22;;;;;;;;;;5090371;28;20110;-57
2022/03/11 10:35:36;;;;;;;6.57;3.50;;;;;;;;;;5090348;28;20024;-57
2022/03/11 10:38:07;;;;;;;8.65;3.50;;;;;;;;;;5080403;28;20078;-56
2022/03/11 10:40:34;;;;;;;11.38;3.97;;;;;;;;;;5094520;28;20035;-56
2022/03/11 10:43:09;;;;;;;9.15;3.80;;;;;;;;;;5094802;28;20036;-57
2022/03/11 10:45:46;;;;;;;8.15;3.20;;;;;;;;;;5075666;28;20028;-57
2022/03/11 10:48:12;;;;;;;5.38;3.45;;;;;;;;;;5075574;28;20036;-57
2022/03/11 10:50:39;;;;;;;5.60;3.85;;;;;;;;;;5075391;28;20078;-58
2022/03/11 10:53:09;;;;;;;6.35;2.92;;;;;;;;;;5074970;28;20037;-57
2022/03/11 10:55:38;;;;;;;8.07;3.83;;;;;;;;;;5082639;28;20020;-57
2022/03/11 10:58:05;;;;;;;5.72;3.63;;;;;;;;;;5075125;28;20028;-57
2022/03/11 11:00:32;;;;;;;8.93;3.45;;;;;;;;;;5075245;28;20060;-57
2022/03/11 11:03:00;;;;;;;11.73;3.28;;;;;;;;;;5074150;28;20055;-50
2022/03/11 11:05:27;;;;;;;5.07;3.15;;;;;;;;;;5084446;28;20070;-57
2022/03/11 11:07:53;;;;;;;6.47;3.25;;;;;;;;;;5076043;28;20025;-57
2022/03/11 11:10:20;;;;;;;12.00;3.35;;;;;;;;;;5074784;28;20028;-57
2022/03/11 11:12:47;;;;;;;10.18;3.88;;;;;;;;;;5074050;28;20048;-57
2022/03/11 11:15:14;;;;;;;7.22;3.45;;;;;;;;;;5077483;28;20111;-57
2022/03/11 11:17:42;;;;;;;7.72;3.15;;;;;;;;;;5078907;28;20024;-56
2022/03/11 11:20:34;;;;;;;9.18;3.05;;;;;;;;;;5074636;28;20071;-61
2022/03/11 11:23:05;;;;;;;6.22;3.92;;;;;;;;;;5085437;28;20032;-59
2022/03/11 11:25:32;;;;;;;6.28;2.80;;;;;;;;;;5094430;28;20024;-59
2022/03/11 11:28:01;;;;;;;9.60;3.45;;;;;;;;;;5076007;28;20033;-57
2022/03/11 11:30:27;;;;;;;5.82;3.17;;;;;;;;;;5074504;28;20117;-58
2022/03/11 11:32:55;;;;;;;6.03;3.42;;;;;;;;;;5074175;28;20407;-58
2022/03/11 11:35:25;;;;;;;7.38;2.53;;;;;;;;;;5074608;28;20043;-57
2022/03/11 11:37:51;;;;;;;6.63;4.03;;;;;;;;;;5076555;28;20031;-57
2022/03/11 11:40:21;;;;;;;4.07;2.55;;;;;;;;;;5094953;28;20024;-58
2022/03/11 11:43:06;;;;;;;4.53;3.03;;;;;;;;;;5081984;28;20032;-57
2022/03/11 11:45:41;;;;;;;5.03;3.17;;;;;;;;;;5093812;28;20036;-57
2022/03/11 11:48:27;;;;;;;5.30;3.50;;;;;;;;;;5093928;28;20025;-58
2022/03/11 11:50:53;;;;;;;9.43;3.63;;;;;;;;;;5093480;28;20103;-57
2022/03/11 11:53:51;;;;;;;8.18;3.85;;;;;;;;;;5094136;28;20107;-58
2022/03/11 11:56:31;;;;;;;4.53;3.65;;;;;;;;;;5038989;28;20028;-57
2022/03/11 11:58:58;;;;;;;5.63;3.40;;;;;;;;;;5080886;28;20082;-57
2022/03/11 12:01:39;;;;;;;9.88;4.05;;;;;;;;;;5074300;28;20025;-57
2022/03/11 12:04:22;;;;;;;5.32;3.08;;;;;;;;;;5073124;28;20846;-57
2022/03/11 12:06:55;;;;;;;4.72;3.25;;;;;;;;;;5073275;28;20028;-57
2022/03/11 12:09:39;;;;;;;6.40;2.85;;;;;;;;;;5091654;28;20357;-57
2022/03/11 12:12:20;;;;;;;5.95;3.00;;;;;;;;;;5093324;28;20024;-57
2022/03/11 12:15:00;;;;;;;4.80;2.97;;;;;;;;;;5073198;28;20032;-57
2022/03/11 12:17:45;;;;;;;5.55;2.95;;;;;;;;;;5075717;28;20048;-57
2022/03/11 12:20:35;;;;;;;4.93;2.72;;;;;;;;;;5093022;28;20059;-57
2022/03/11 12:23:08;;;;;;;8.48;4.03;;;;;;;;;;5093043;28;20069;-57
2022/03/11 12:25:34;;;;;;;5.03;2.47;;;;;;;;;;5093737;28;20035;-58
2022/03/11 12:28:02;;;;;;;5.38;3.30;;;;;;;;;;5083572;28;20021;-57
2022/03/11 12:30:28;;;;;;;5.30;3.03;;;;;;;;;;5073543;28;20386;-57
2022/03/11 12:32:55;;;;;;;4.07;3.13;;;;;;;;;;5072688;28;20032;-57
2022/03/11 12:35:24;;;;;;;3.88;2.90;;;;;;;;;;5073525;28;20020;-57
2022/03/11 12:37:51;;;;;;;5.50;3.13;;;;;;;;;;5080044;28;20342;-57
2022/03/11 12:40:19;;;;;;;5.10;3.55;;;;;;;;;;5093430;28;20372;-57
2022/03/11 12:42:45;;;;;;;8.30;3.33;;;;;;;;;;5093030;28;20030;-56
2022/03/11 12:45:13;;;;;;;5.32;2.67;;;;;;;;;;5077084;28;20093;-57
2022/03/11 12:47:39;;;;;;;5.75;2.90;;;;;;;;;;5076897;28;20028;-57
2022/03/11 12:50:07;;;;;;;3.75;2.83;;;;;;;;;;5079683;28;20602;-57
2022/03/11 12:52:40;;;;;;;6.18;3.53;;;;;;;;;;5092948;28;20036;-57
2022/03/11 12:55:25;;;;;;;4.68;2.58;;;;;;;;;;5092551;28;20493;-57
2022/03/11 12:57:52;;;;;;;6.15;3.17;;;;;;;;;;5082891;28;20062;-57
2022/03/11 13:00:29;;;;;;;4.20;2.60;;;;;;;;;;5073318;28;20032;-57
2022/03/11 13:02:56;;;;;;;4.35;2.40;;;;;;;;;;5080876;28;20082;-57
2022/03/11 13:05:22;;;;;;;3.50;2.70;;;;;;;;;;5093127;28;20078;-57
2022/03/11 13:07:48;;;;;;;5.45;3.00;;;;;;;;;;5078843;28;20598;-56
2022/03/11 13:10:16;;;;;;;3.53;2.40;;;;;;;;;;5068689;28;20505;-57
2022/03/11 13:12:41;;;;;;;4.75;2.60;;;;;;;;;;5075357;28;20419;-57
2022/03/11 13:15:11;;;;;;;3.88;2.92;;;;;;;;;;5072954;28;20029;-57
2022/03/11 13:17:41;;;;;;;4.18;2.67;;;;;;;;;;5082216;28;20035;-57
2022/03/11 13:20:08;;;;;;;5.25;2.83;;;;;;;;;;5091992;28;20028;-57
2022/03/11 13:22:34;;;;;;;5.45;2.92;;;;;;;;;;5092741;28;20467;-57
2022/03/11 13:25:04;;;;;;;4.20;2.65;;;;;;;;;;5091387;28;20514;-57
2022/03/11 13:27:37;;;;;;;5.28;2.45;;;;;;;;;;5083842;28;20029;-57
2022/03/11 13:30:06;;;;;;;4.53;2.50;;;;;;;;;;5071512;28;20044;-57
2022/03/11 13:32:32;;;;;;;3.30;2.40;;;;;;;;;;5072278;28;20465;-57
2022/03/11 13:34:58;;;;;;;4.28;2.20;;;;;;;;;;5070894;28;20024;-57
2022/03/11 13:37:24;;;;;;;4.40;3.33;;;;;;;;;;5078639;28;20100;-57
2022/03/11 13:40:10;;;;;;;3.85;2.35;;;;;;;;;;5091425;28;20047;-57
2022/03/11 13:42:36;;;;;;;5.13;2.63;;;;;;;;;;5074635;28;20016;-57
2022/03/11 13:45:06;;;;;;;3.85;2.70;;;;;;;;;;5076578;28;20033;-57
2022/03/11 13:47:32;;;;;;;4.97;2.78;;;;;;;;;;5072497;28;20105;-57
2022/03/11 13:50:06;;;;;;;4.30;2.40;;;;;;;;;;5071308;28;20070;-57
2022/03/11 13:52:40;;;;;;;3.30;2.20;;;;;;;;;;5082318;28;20060;-57
2022/03/11 13:55:07;;;;;;;3.53;2.22;;;;;;;;;;5072503;28;20035;-57
2022/03/11 13:57:33;;;;;;;4.45;2.72;;;;;;;;;;5062860;28;20040;-57
2022/03/11 14:00:35;;;;;;;4.40;2.65;;;;;;;;;;5071395;28;20035;-57
2022/03/11 14:03:11;;;;;;;3.03;2.30;;;;;;;;;;4989317;28;20034;-57
2022/03/11 14:05:41;;;;;;;4.25;2.30;;;;;;;;;;5061270;28;20512;-58
2022/03/11 14:08:07;;;;;;;3.15;2.00;;;;;;;;;;5071264;28;20029;-57
2022/03/11 14:10:37;;;;;;;2.58;1.98;;;;;;;;;;5084070;28;20060;-57
2022/03/11 14:13:05;;;;;;;3.50;2.50;;;;;;;;;;5090915;28;20034;-58
2022/03/11 14:15:32;;;;;;;4.72;2.40;;;;;;;;;;5091541;28;20055;-57
2022/03/11 14:17:58;;;;;;;4.97;2.00;;;;;;;;;;5074781;28;20465;-57
2022/03/11 14:20:25;;;;;;;2.80;2.00;;;;;;;;;;5071443;28;20384;-57
2022/03/11 14:22:51;;;;;;;3.53;1.98;;;;;;;;;;5071660;28;20146;-57
2022/03/11 14:25:17;;;;;;;3.47;2.58;;;;;;;;;;5070886;28;20480;-57
2022/03/11 14:27:43;;;;;;;2.97;2.28;;;;;;;;;;5087693;28;20059;-57
2022/03/11 14:30:09;;;;;;;3.15;1.70;;;;;;;;;;5090720;28;20036;-57
2022/03/11 14:32:38;;;;;;;3.42;2.38;;;;;;;;;;5091778;28;20038;-57
2022/03/11 14:35:04;;;;;;;5.45;2.55;;;;;;;;;;5090533;28;20059;-57
2022/03/11 14:37:30;;;;;;;4.13;2.42;;;;;;;;;;5076996;28;20081;-58
2022/03/11 14:39:57;;;;;;;4.03;2.63;;;;;;;;;;5073954;28;20021;-56
2022/03/11 14:42:23;;;;;;;3.25;2.42;;;;;;;;;;5071277;28;20396;-57
2022/03/11 14:44:49;;;;;;;2.70;1.90;;;;;;;;;;5073320;28;20024;-57
2022/03/11 14:47:15;;;;;;;3.78;2.67;;;;;;;;;;5082458;28;20115;-58